Time;durP1;ratioP1;P1;durP2;ratioP2;P2;SDS_P1;SDS_P2;PMS_P1;PMS_P2;Temp;Humidity;BMP_temperature;BMP_pressure;BME280_temperature;BME280_humidity;BME280_pressure;Samples;Min_cycle;Max_cycle;Signal;HPM_P1;HPM_P2
2021/01/07 00:01:28;;;;;;;13.93;6.35;;;5.70;99.90;;;;;;5034806;28;20041;-80
2021/01/07 00:03:54;;;;;;;10.55;5.50;;;5.70;99.90;;;;;;5016728;28;20021;-80
2021/01/07 00:06:19;;;;;;;10.15;5.80;;;5.80;99.90;;;;;;5034644;28;20030;-80
2021/01/07 00:08:45;;;;;;;14.77;6.03;;;5.80;99.90;;;;;;5034382;28;20022;-78
2021/01/07 00:11:11;;;;;;;8.82;6.00;;;5.80;99.90;;;;;;5034529;28;20025;-79
2021/01/07 00:13:38;;;;;;;11.15;5.80;;;5.90;99.90;;;;;;5034262;28;20033;-79
2021/01/07 00:16:05;;;;;;;7.97;5.35;;;5.80;99.90;;;;;;5034009;28;20022;-78
2021/01/07 00:18:31;;;;;;;6.20;5.20;;;5.80;99.90;;;;;;5034473;28;20165;-78
2021/01/07 00:20:56;;;;;;;10.75;6.25;;;5.80;99.90;;;;;;5033781;28;20041;-80
2021/01/07 00:23:22;;;;;;;6.75;5.13;;;5.80;99.90;;;;;;5034176;28;20025;-78
2021/01/07 00:25:53;;;;;;;7.68;5.60;;;5.80;99.90;;;;;;5034259;28;20099;-79
2021/01/07 00:28:21;;;;;;;11.68;6.63;;;5.70;99.90;;;;;;5034233;28;20105;-82
2021/01/07 00:30:47;;;;;;;9.30;5.50;;;5.70;99.90;;;;;;5015728;28;20031;-82
2021/01/07 00:33:14;;;;;;;8.77;6.03;;;5.70;99.90;;;;;;5033683;28;20021;-78
2021/01/07 00:35:41;;;;;;;9.25;6.32;;;5.70;99.90;;;;;;5033711;28;20068;-81
2021/01/07 00:38:07;;;;;;;11.50;6.85;;;5.80;99.90;;;;;;5015469;28;20009;-80
2021/01/07 00:40:33;;;;;;;9.90;6.30;;;5.80;99.90;;;;;;5034420;28;20068;-80
2021/01/07 00:42:59;;;;;;;9.43;5.38;;;5.80;99.90;;;;;;5016477;28;20017;-78
2021/01/07 00:45:25;;;;;;;9.27;5.43;;;5.80;99.90;;;;;;5034107;28;20036;-80
2021/01/07 00:47:51;;;;;;;11.82;7.38;;;5.90;99.90;;;;;;5033479;28;20025;-81
2021/01/07 00:50:16;;;;;;;11.95;6.57;;;5.90;99.90;;;;;;5033319;28;20111;-80
2021/01/07 00:52:43;;;;;;;10.95;6.97;;;5.90;99.90;;;;;;5033766;28;20022;-80
2021/01/07 00:55:10;;;;;;;13.45;8.32;;;5.90;99.90;;;;;;5033854;28;20088;-77
2021/01/07 00:57:36;;;;;;;12.43;7.38;;;5.90;99.90;;;;;;5033698;28;20014;-80
2021/01/07 01:00:08;;;;;;;14.20;8.43;;;5.90;99.90;;;;;;5033280;28;20172;-77
2021/01/07 01:02:34;;;;;;;13.40;8.43;;;5.90;99.90;;;;;;5033099;28;20018;-78
2021/01/07 01:05:00;;;;;;;11.80;8.10;;;5.90;99.90;;;;;;5033671;28;20021;-80
2021/01/07 01:07:26;;;;;;;16.13;8.73;;;5.80;99.90;;;;;;5033037;28;20092;-79
2021/01/07 01:09:53;;;;;;;18.20;9.18;;;5.80;99.90;;;;;;5015693;28;20022;-79
2021/01/07 01:12:19;;;;;;;15.20;9.70;;;5.70;99.90;;;;;;5032834;28;20031;-79
2021/01/07 01:14:45;;;;;;;15.98;10.18;;;5.70;99.90;;;;;;5032507;28;20108;-81
2021/01/07 01:17:11;;;;;;;18.42;9.73;;;5.70;99.90;;;;;;5033334;28;20366;-77
2021/01/07 01:19:36;;;;;;;19.05;9.82;;;5.70;99.90;;;;;;5032783;28;20080;-78
2021/01/07 01:22:03;;;;;;;16.30;10.10;;;5.70;99.90;;;;;;5032401;28;20482;-81
2021/01/07 01:24:28;;;;;;;16.40;9.32;;;5.70;99.90;;;;;;5032975;28;20393;-79
2021/01/07 01:27:02;;;;;;;15.77;9.27;;;5.60;99.90;;;;;;5016582;28;20109;-81
2021/01/07 01:29:28;;;;;;;17.08;9.35;;;5.60;99.90;;;;;;5032416;28;20017;-81
2021/01/07 01:31:54;;;;;;;15.88;9.48;;;5.60;99.90;;;;;;5024074;28;20032;-80
2021/01/07 01:34:21;;;;;;;13.38;8.13;;;5.60;99.90;;;;;;5032678;28;20076;-77
2021/01/07 01:36:47;;;;;;;13.57;8.55;;;5.60;99.90;;;;;;5031871;28;20037;-80
2021/01/07 01:39:14;;;;;;;12.07;7.72;;;5.60;99.90;;;;;;5031716;28;20034;-80
2021/01/07 01:41:45;;;;;;;11.52;6.63;;;5.50;99.90;;;;;;5030350;28;20481;-80
2021/01/07 01:44:11;;;;;;;10.48;6.65;;;5.40;99.90;;;;;;5014684;28;20049;-78
2021/01/07 01:46:37;;;;;;;9.27;5.80;;;5.30;99.90;;;;;;5032448;28;20063;-79
2021/01/07 01:49:04;;;;;;;9.02;5.40;;;5.30;99.90;;;;;;5032379;28;20032;-81
2021/01/07 01:51:34;;;;;;;9.23;5.13;;;5.30;99.90;;;;;;5032612;28;20060;-80
2021/01/07 01:54:00;;;;;;;6.57;4.38;;;5.30;99.90;;;;;;5018670;28;20186;-78
2021/01/07 01:56:26;;;;;;;6.68;4.38;;;5.30;99.90;;;;;;5032058;28;20022;-78
2021/01/07 01:58:52;;;;;;;3.83;3.00;;;5.30;99.90;;;;;;5031854;28;20120;-78
2021/01/07 02:01:18;;;;;;;4.32;3.00;;;5.30;99.90;;;;;;5032985;28;20165;-80
2021/01/07 02:03:44;;;;;;;3.72;2.83;;;5.40;99.90;;;;;;5014193;28;20116;-80
2021/01/07 02:06:14;;;;;;;3.35;2.65;;;5.40;99.90;;;;;;5032334;28;20553;-81
2021/01/07 02:08:44;;;;;;;4.03;3.00;;;5.40;99.90;;;;;;5031890;28;20053;-81
2021/01/07 02:11:10;;;;;;;3.05;2.67;;;5.40;99.90;;;;;;5032302;28;20052;-81
2021/01/07 02:13:38;;;;;;;6.07;2.83;;;5.40;99.90;;;;;;5032286;28;20049;-80
2021/01/07 02:16:04;;;;;;;5.55;3.67;;;5.50;99.90;;;;;;5032474;28;20502;-77
2021/01/07 02:18:30;;;;;;;5.03;3.55;;;5.50;99.90;;;;;;5032014;28;20052;-81
2021/01/07 02:21:00;;;;;;;4.00;3.03;;;5.50;99.90;;;;;;5031525;28;20049;-80
2021/01/07 02:23:27;;;;;;;4.85;3.92;;;5.60;99.90;;;;;;5032407;28;20426;-79
2021/01/07 02:25:53;;;;;;;5.57;3.80;;;5.60;99.90;;;;;;5032267;28;20029;-81
2021/01/07 02:28:19;;;;;;;4.57;3.60;;;5.50;99.90;;;;;;5032361;28;20036;-79
2021/01/07 02:30:45;;;;;;;4.22;3.55;;;5.60;99.90;;;;;;5031971;28;20025;-80
2021/01/07 02:33:11;;;;;;;6.00;3.83;;;5.60;99.90;;;;;;5031703;28;20377;-77
2021/01/07 02:35:37;;;;;;;4.13;3.15;;;5.70;99.90;;;;;;5032208;28;20025;-82
2021/01/07 02:38:03;;;;;;;4.65;3.47;;;5.70;99.90;;;;;;5032167;28;20464;-81
2021/01/07 02:40:29;;;;;;;4.40;3.47;;;5.70;99.90;;;;;;5032054;28;20032;-81
2021/01/07 02:42:54;;;;;;;6.88;4.10;;;5.70;99.90;;;;;;5014035;28;20018;-78
2021/01/07 02:45:20;;;;;;;6.65;4.40;;;5.60;99.90;;;;;;5031621;28;20033;-78
2021/01/07 02:47:46;;;;;;;7.22;4.70;;;5.60;99.90;;;;;;5031669;28;20026;-81
2021/01/07 02:50:12;;;;;;;6.20;4.00;;;5.50;99.90;;;;;;5031804;28;20025;-81
2021/01/07 02:52:37;;;;;;;5.28;3.95;;;5.50;99.90;;;;;;5031831;28;20540;-80
2021/01/07 02:55:05;;;;;;;5.20;4.05;;;5.50;99.90;;;;;;5031560;28;20032;-78
2021/01/07 02:57:31;;;;;;;7.40;4.00;;;5.40;99.90;;;;;;5031400;28;20029;-79
2021/01/07 02:59:57;;;;;;;6.82;4.32;;;5.40;99.90;;;;;;5031497;28;20045;-80
2021/01/07 03:02:23;;;;;;;6.07;4.18;;;5.40;99.90;;;;;;5031265;28;20072;-81
2021/01/07 03:04:49;;;;;;;6.82;4.32;;;5.40;99.90;;;;;;5031820;28;20441;-81
2021/01/07 03:07:15;;;;;;;8.70;4.72;;;5.40;99.90;;;;;;5031722;28;20362;-81
2021/01/07 03:09:43;;;;;;;6.03;4.60;;;5.40;99.90;;;;;;5031867;28;20096;-81
2021/01/07 03:12:12;;;;;;;6.68;4.85;;;5.40;99.90;;;;;;5031688;28;20708;-78
2021/01/07 03:14:38;;;;;;;14.07;4.63;;;5.40;99.90;;;;;;5031607;28;20104;-81
2021/01/07 03:17:04;;;;;;;7.28;4.50;;;5.50;99.90;;;;;;5031529;28;20053;-79
2021/01/07 03:19:30;;;;;;;6.97;4.45;;;5.50;99.90;;;;;;5031788;28;20022;-81
2021/01/07 03:21:56;;;;;;;7.72;5.32;;;5.50;99.90;;;;;;5031478;28;20043;-80
2021/01/07 03:24:21;;;;;;;7.85;5.25;;;5.50;99.90;;;;;;5031367;28;20083;-79
2021/01/07 03:26:47;;;;;;;8.82;5.45;;;5.50;99.90;;;;;;5031731;28;20100;-82
2021/01/07 03:29:13;;;;;;;6.60;5.07;;;5.50;99.90;;;;;;5031554;28;20026;-81
2021/01/07 03:31:38;;;;;;;6.43;4.72;;;5.60;99.90;;;;;;5031517;28;20453;-79
2021/01/07 03:34:04;;;;;;;6.32;4.78;;;5.50;99.90;;;;;;5029927;28;20030;-80
2021/01/07 03:36:30;;;;;;;6.22;4.63;;;5.50;99.90;;;;;;5031346;28;20381;-82
2021/01/07 03:38:55;;;;;;;7.63;5.25;;;5.50;99.90;;;;;;5034840;28;20022;-81
2021/01/07 03:41:21;;;;;;;10.65;5.43;;;5.50;99.90;;;;;;5031724;28;20482;-80
2021/01/07 03:43:47;;;;;;;11.05;6.72;;;5.50;99.90;;;;;;5038372;28;20022;-78
2021/01/07 03:46:12;;;;;;;8.35;5.28;;;5.50;99.90;;;;;;5013926;28;20032;-81
2021/01/07 03:48:38;;;;;;;9.93;6.25;;;5.40;99.90;;;;;;5041803;28;20134;-81
2021/01/07 03:51:04;;;;;;;8.27;5.85;;;5.40;99.90;;;;;;5048958;28;20381;-81
2021/01/07 03:53:30;;;;;;;9.50;5.97;;;5.40;99.90;;;;;;5039111;28;20438;-81
2021/01/07 03:55:55;;;;;;;9.13;6.53;;;5.30;99.90;;;;;;5051398;28;20028;-80
2021/01/07 03:58:21;;;;;;;12.10;7.60;;;5.30;99.90;;;;;;5051242;28;20358;-80
2021/01/07 04:00:47;;;;;;;11.82;7.03;;;5.20;99.90;;;;;;5038159;28;20521;-80
2021/01/07 04:03:12;;;;;;;11.95;7.38;;;5.30;99.90;;;;;;5031007;28;20032;-80
2021/01/07 04:05:38;;;;;;;10.52;7.05;;;5.30;99.90;;;;;;5033062;28;20029;-77
2021/01/07 04:08:04;;;;;;;10.55;6.75;;;5.30;99.90;;;;;;5035855;28;20490;-80
2021/01/07 04:10:30;;;;;;;16.85;7.78;;;5.30;99.90;;;;;;5054610;28;20739;-79
2021/01/07 04:12:56;;;;;;;12.90;7.20;;;5.40;99.90;;;;;;5054277;28;20766;-81
2021/01/07 04:15:21;;;;;;;13.80;7.72;;;5.40;99.90;;;;;;5054007;28;20044;-81
2021/01/07 04:17:47;;;;;;;13.23;7.28;;;5.40;99.90;;;;;;5054171;28;20422;-81
2021/01/07 04:20:13;;;;;;;12.68;7.43;;;5.40;99.90;;;;;;5054270;28;20092;-81
2021/01/07 04:22:42;;;;;;;9.20;6.68;;;5.50;99.90;;;;;;5054788;28;20055;-78
2021/01/07 04:25:09;;;;;;;10.98;6.80;;;5.50;99.90;;;;;;5054299;28;20072;-81
2021/01/07 04:27:34;;;;;;;14.48;7.57;;;5.50;99.90;;;;;;5054910;28;20145;-79
2021/01/07 04:30:00;;;;;;;15.45;8.43;;;5.50;99.90;;;;;;5023166;28;20041;-78
2021/01/07 04:32:26;;;;;;;15.38;8.27;;;5.50;99.90;;;;;;5026499;28;20025;-80
2021/01/07 04:34:52;;;;;;;16.13;9.20;;;5.40;99.90;;;;;;5054106;28;20035;-79
2021/01/07 04:37:18;;;;;;;20.70;9.55;;;5.50;99.90;;;;;;5053725;28;20420;-79
2021/01/07 04:39:43;;;;;;;15.52;8.77;;;5.50;99.90;;;;;;5053658;28;20040;-82
2021/01/07 04:42:09;;;;;;;14.40;8.95;;;5.50;99.90;;;;;;5052344;28;20044;-81
2021/01/07 04:44:37;;;;;;;16.23;9.07;;;5.60;99.90;;;;;;5041008;28;20017;-80
2021/01/07 04:47:03;;;;;;;15.45;9.57;;;5.60;99.90;;;;;;5053750;28;20387;-77
2021/01/07 04:49:29;;;;;;;21.00;10.02;;;5.70;99.90;;;;;;5053666;28;20092;-79
2021/01/07 04:51:56;;;;;;;16.63;9.65;;;5.70;99.90;;;;;;5053846;28;20025;-81
2021/01/07 04:54:22;;;;;;;19.30;9.73;;;5.80;99.90;;;;;;5049583;28;20018;-81
2021/01/07 04:56:48;;;;;;;19.83;9.48;;;5.80;99.90;;;;;;5033416;28;20037;-81
2021/01/07 04:59:14;;;;;;;16.90;9.20;;;5.80;99.90;;;;;;5032980;28;20056;-78
2021/01/07 05:01:43;;;;;;;17.88;9.40;;;5.80;99.90;;;;;;5033563;28;20445;-81
2021/01/07 05:04:09;;;;;;;15.30;9.50;;;5.90;99.90;;;;;;5033383;28;20022;-78
2021/01/07 05:06:35;;;;;;;21.52;10.00;;;5.90;99.90;;;;;;5033145;28;20043;-78
2021/01/07 05:09:06;;;;;;;17.48;9.38;;;5.80;99.90;;;;;;5033164;28;20067;-79
2021/01/07 05:11:32;;;;;;;21.67;8.85;;;5.90;99.90;;;;;;5033235;28;20064;-82
2021/01/07 05:14:00;;;;;;;15.00;9.05;;;5.80;99.90;;;;;;5033822;28;20064;-81
2021/01/07 05:16:26;;;;;;;16.20;8.63;;;5.80;99.90;;;;;;5032491;28;20036;-81
2021/01/07 05:18:53;;;;;;;16.27;8.15;;;5.80;99.90;;;;;;5033282;28;20026;-82
2021/01/07 05:21:21;;;;;;;15.75;8.23;;;5.90;99.90;;;;;;5033001;28;20382;-81
2021/01/07 05:23:51;;;;;;;16.17;8.40;;;5.90;99.90;;;;;;5033567;28;20688;-80
2021/01/07 05:26:18;;;;;;;13.02;7.78;;;6.00;99.90;;;;;;5038623;28;20714;-80
2021/01/07 05:28:49;;;;;;;11.50;7.05;;;6.00;99.90;;;;;;5032448;28;20109;-78
2021/01/07 05:31:21;;;;;;;13.82;7.60;;;6.00;99.90;;;;;;5029525;28;20036;-78
2021/01/07 05:33:48;;;;;;;14.07;8.38;;;6.00;99.90;;;;;;5029488;28;20026;-80
2021/01/07 05:36:40;;;;;;;9.50;6.40;;;6.10;99.90;;;;;;5033177;28;20051;-80
2021/01/07 05:39:06;;;;;;;13.43;6.70;;;6.00;99.90;;;;;;5027371;28;20025;-79
2021/01/07 05:41:33;;;;;;;11.52;6.10;;;6.00;99.90;;;;;;5045049;28;20065;-81
2021/01/07 05:44:12;;;;;;;11.00;7.10;;;6.00;99.90;;;;;;5042724;28;20056;-77
2021/01/07 05:46:37;;;;;;;12.10;7.90;;;6.00;99.90;;;;;;5044435;28;20025;-81
2021/01/07 05:49:03;;;;;;;11.73;6.95;;;6.00;99.90;;;;;;5044423;28;20535;-81
2021/01/07 05:51:31;;;;;;;14.57;7.72;;;6.00;99.90;;;;;;5040822;28;20030;-81
2021/01/07 05:53:58;;;;;;;11.82;6.75;;;6.00;99.90;;;;;;5032661;28;20021;-79
2021/01/07 05:56:25;;;;;;;11.68;6.10;;;6.00;99.90;;;;;;5032675;28;20025;-80
2021/01/07 05:58:52;;;;;;;10.95;6.70;;;6.00;99.90;;;;;;5023536;28;20049;-77
2021/01/07 06:01:20;;;;;;;12.30;6.03;;;6.00;99.90;;;;;;5033692;28;20549;-82
2021/01/07 06:03:50;;;;;;;11.10;6.72;;;6.00;99.90;;;;;;5032651;28;20057;-82
2021/01/07 06:06:18;;;;;;;8.30;5.68;;;6.00;99.90;;;;;;5014564;28;20473;-81
2021/01/07 06:08:50;;;;;;;12.80;6.57;;;6.00;99.90;;;;;;5032064;28;20028;-79
2021/01/07 06:11:17;;;;;;;;;;;6.00;99.90;;;;;;5032596;28;20043;-81
2021/01/07 06:13:44;;;;;;;10.98;5.78;;;6.00;99.90;;;;;;5032013;28;19982;-80
2021/01/07 06:16:12;;;;;;;11.07;6.22;;;6.00;99.90;;;;;;5032308;28;20111;-81
2021/01/07 06:18:38;;;;;;;10.85;6.63;;;6.00;99.90;;;;;;5033877;28;20017;-82
2021/01/07 06:21:04;;;;;;;11.85;7.10;;;6.00;99.90;;;;;;5038536;28;20029;-80
2021/01/07 06:23:31;;;;;;;16.00;8.57;;;6.10;99.90;;;;;;5031769;28;20025;-82
2021/01/07 06:26:22;;;;;;;11.00;7.47;;;6.00;99.90;;;;;;5032029;28;20013;-79
2021/01/07 06:28:59;;;;;;;15.73;8.27;;;6.10;99.90;;;;;;5036740;28;20393;-80
2021/01/07 06:31:38;;;;;;;13.63;7.15;;;6.00;99.90;;;;;;5038912;28;20028;-81
2021/01/07 06:34:04;;;;;;;10.75;7.60;;;6.00;99.90;;;;;;5031353;28;20025;-76
2021/01/07 06:36:44;;;;;;;12.20;7.80;;;6.00;99.90;;;;;;5014237;28;20022;-79
2021/01/07 06:39:10;;;;;;;10.10;6.80;;;6.00;99.90;;;;;;5031964;28;20072;-78
2021/01/07 06:41:36;;;;;;;13.18;7.55;;;6.00;99.90;;;;;;5032017;28;20037;-80
2021/01/07 06:44:04;;;;;;;13.25;7.90;;;5.90;99.90;;;;;;5045826;28;20021;-81
2021/01/07 06:46:44;;;;;;;12.45;7.57;;;5.90;99.90;;;;;;5026442;28;20032;-80
2021/01/07 06:49:28;;;;;;;17.35;7.78;;;5.90;99.90;;;;;;5035352;28;20025;-78
2021/01/07 06:52:04;;;;;;;15.65;8.50;;;5.90;99.90;;;;;;5023849;28;20537;-78
2021/01/07 06:54:38;;;;;;;12.80;7.75;;;6.00;99.90;;;;;;5035620;28;20029;-77
2021/01/07 06:57:07;;;;;;;15.68;9.50;;;5.90;99.90;;;;;;5038930;28;20473;-76
2021/01/07 06:59:33;;;;;;;13.38;8.98;;;5.90;99.90;;;;;;5036961;28;20057;-76
2021/01/07 07:02:00;;;;;;;13.32;7.72;;;5.90;99.90;;;;;;5028281;28;20378;-76
2021/01/07 07:04:29;;;;;;;18.85;10.38;;;5.90;99.90;;;;;;5036014;28;20101;-77
2021/01/07 07:07:19;;;;;;;14.65;8.90;;;5.90;99.90;;;;;;5035790;28;20030;-76
2021/01/07 07:09:45;;;;;;;14.68;8.40;;;5.80;99.90;;;;;;5030873;28;20394;-76
2021/01/07 07:12:30;;;;;;;14.68;8.15;;;5.80;99.90;;;;;;5031694;28;20029;-76
2021/01/07 07:14:59;;;;;;;14.38;9.10;;;5.90;99.90;;;;;;5031561;28;20014;-75
2021/01/07 07:17:27;;;;;;;23.65;8.90;;;6.00;99.90;;;;;;5031324;28;20473;-76
2021/01/07 07:19:53;;;;;;;23.60;10.20;;;6.00;99.90;;;;;;5031172;28;20018;-76
2021/01/07 07:22:20;;;;;;;18.48;10.40;;;6.00;99.90;;;;;;5030898;28;20037;-76
2021/01/07 07:24:53;;;;;;;15.52;9.30;;;6.00;99.90;;;;;;5031261;28;20022;-76
2021/01/07 07:27:19;;;;;;;15.98;10.00;;;6.00;99.90;;;;;;5031252;28;20033;-76
2021/01/07 07:29:49;;;;;;;17.67;9.50;;;5.90;99.90;;;;;;5019939;28;20022;-76
2021/01/07 07:32:26;;;;;;;17.25;9.88;;;5.90;99.90;;;;;;5030903;28;20024;-76
2021/01/07 07:34:53;;;;;;;19.40;9.35;;;6.00;99.90;;;;;;5030922;28;20041;-76
2021/01/07 07:37:25;;;;;;;16.50;9.68;;;6.00;99.90;;;;;;5031616;28;20076;-76
2021/01/07 07:39:59;;;;;;;14.95;8.98;;;6.00;99.90;;;;;;5032348;28;20016;-76
2021/01/07 07:42:27;;;;;;;16.88;8.95;;;6.00;99.90;;;;;;5029930;28;20369;-76
2021/01/07 07:44:53;;;;;;;13.52;8.52;;;6.00;99.90;;;;;;5054785;28;20040;-76
2021/01/07 07:47:22;;;;;;;14.32;8.70;;;6.00;99.90;;;;;;5022862;28;20025;-78
2021/01/07 07:49:58;;;;;;;15.73;9.02;;;6.00;99.90;;;;;;5045953;28;20083;-80
2021/01/07 07:52:25;;;;;;;15.52;9.25;;;6.00;99.90;;;;;;5034799;28;20024;-79
2021/01/07 07:55:04;;;;;;;17.00;8.48;;;6.10;99.90;;;;;;5046540;28;20053;-78
2021/01/07 07:57:32;;;;;;;15.20;9.27;;;6.10;99.90;;;;;;5034420;28;20104;-78
2021/01/07 08:00:17;;;;;;;13.45;8.60;;;6.10;99.90;;;;;;5034312;28;20379;-79
2021/01/07 08:02:44;;;;;;;20.35;9.13;;;6.10;99.90;;;;;;5046988;28;20120;-76
2021/01/07 08:05:24;;;;;;;19.20;10.00;;;6.20;99.90;;;;;;5047392;28;20048;-75
2021/01/07 08:07:54;;;;;;;16.27;9.35;;;6.20;99.90;;;;;;5052276;28;20056;-79
2021/01/07 08:10:20;;;;;;;16.27;8.93;;;6.30;99.90;;;;;;5053812;28;20083;-77
2021/01/07 08:12:46;;;;;;;16.65;9.38;;;6.30;99.90;;;;;;5052687;28;20036;-76
2021/01/07 08:15:25;;;;;;;14.55;9.07;;;6.30;99.90;;;;;;5050466;28;20359;-78
2021/01/07 08:17:50;;;;;;;15.60;9.40;;;6.30;99.90;;;;;;5030284;28;20021;-78
2021/01/07 08:20:25;;;;;;;21.20;9.80;;;6.40;99.90;;;;;;5051501;28;21193;-78
2021/01/07 08:22:55;;;;;;;18.20;9.15;;;6.40;99.90;;;;;;5034415;28;20055;-76
2021/01/07 08:25:29;;;;;;;18.55;10.15;;;6.50;99.90;;;;;;5050211;28;20021;-77
2021/01/07 08:28:00;;;;;;;14.57;8.85;;;6.50;99.90;;;;;;5053422;28;20040;-76
2021/01/07 08:30:26;;;;;;;14.43;8.68;;;6.50;99.90;;;;;;5034068;28;20053;-75
2021/01/07 08:32:57;;;;;;;17.35;9.20;;;6.60;99.90;;;;;;5034252;28;20037;-75
2021/01/07 08:35:24;;;;;;;21.75;11.30;;;6.60;99.90;;;;;;5034328;28;20041;-76
2021/01/07 08:37:49;;;;;;;70.72;35.28;;;6.70;99.90;;;;;;5034043;28;20034;-74
2021/01/07 08:40:15;;;;;;;26.70;15.25;;;6.70;99.90;;;;;;5044025;28;20032;-73
2021/01/07 08:42:41;;;;;;;26.60;18.33;;;6.70;99.90;;;;;;5028555;28;20113;-73
2021/01/07 08:45:09;;;;;;;29.05;13.50;;;6.80;99.90;;;;;;5045083;28;20121;-75
2021/01/07 08:47:35;;;;;;;24.90;13.55;;;6.80;99.90;;;;;;5043146;28;20036;-73
2021/01/07 08:50:13;;;;;;;28.75;17.58;;;6.80;99.90;;;;;;5041336;28;20095;-73
2021/01/07 08:52:52;;;;;;;30.85;18.88;;;6.80;99.90;;;;;;5049502;28;21015;-73
2021/01/07 08:55:19;;;;;;;26.83;17.25;;;6.80;99.90;;;;;;5052645;28;20355;-73
2021/01/07 08:57:45;;;;;;;29.20;15.40;;;6.90;99.90;;;;;;5031772;28;20109;-75
2021/01/07 09:00:18;;;;;;;18.20;10.38;;;6.90;99.90;;;;;;5052251;28;20045;-76
2021/01/07 09:02:44;;;;;;;18.23;10.15;;;7.00;99.90;;;;;;5049707;28;20393;-77
2021/01/07 09:05:10;;;;;;;27.55;14.02;;;7.00;99.90;;;;;;5051071;28;20036;-79
2021/01/07 09:07:36;;;;;;;19.33;9.77;;;7.00;99.90;;;;;;5046329;28;20033;-78
2021/01/07 09:10:03;;;;;;;21.75;15.45;;;7.00;99.90;;;;;;5044444;28;20033;-75
2021/01/07 09:12:32;;;;;;;21.05;9.88;;;7.10;99.90;;;;;;5028717;28;20025;-78
2021/01/07 09:15:05;;;;;;;16.38;9.40;;;7.10;99.90;;;;;;5046296;28;20473;-78
2021/01/07 09:17:47;;;;;;;48.67;24.52;;;7.10;99.90;;;;;;5022883;28;20390;-78
2021/01/07 09:20:16;;;;;;;45.65;28.15;;;7.10;99.90;;;;;;5024677;28;20286;-75
2021/01/07 09:22:43;;;;;;;27.60;15.70;;;7.10;99.90;;;;;;5043892;28;20095;-77
2021/01/07 09:25:20;;;;;;;27.63;16.55;;;7.20;99.90;;;;;;5049945;28;20041;-77
2021/01/07 09:27:52;;;;;;;15.45;9.68;;;7.20;99.90;;;;;;5040003;28;20032;-77
2021/01/07 09:30:18;;;;;;;19.48;9.95;;;7.30;99.90;;;;;;5032820;28;20549;-77
2021/01/07 09:32:44;;;;;;;12.52;8.27;;;7.40;99.90;;;;;;5037530;28;20049;-77
2021/01/07 09:35:11;;;;;;;26.98;16.00;;;7.40;99.90;;;;;;5035130;28;20058;-77
2021/01/07 09:37:37;;;;;;;22.67;14.35;;;7.50;99.90;;;;;;5033077;28;20033;-78
2021/01/07 09:40:05;;;;;;;23.90;14.60;;;7.50;99.90;;;;;;5044566;28;20095;-78
2021/01/07 09:42:32;;;;;;;19.67;11.40;;;7.60;99.90;;;;;;5032650;28;20397;-78
2021/01/07 09:45:03;;;;;;;19.63;10.95;;;7.60;99.90;;;;;;5035477;28;20037;-75
2021/01/07 09:47:29;;;;;;;18.05;10.60;;;7.60;99.90;;;;;;5032462;28;20029;-74
2021/01/07 09:49:56;;;;;;;18.45;10.57;;;7.60;99.90;;;;;;5032484;28;20168;-76
2021/01/07 09:52:25;;;;;;;23.33;11.32;;;7.60;99.90;;;;;;5034211;28;20120;-77
2021/01/07 09:54:51;;;;;;;15.75;9.52;;;7.60;99.90;;;;;;5050539;28;20021;-75
2021/01/07 09:57:17;;;;;;;22.33;12.30;;;7.70;99.90;;;;;;5049229;28;20358;-76
2021/01/07 09:59:43;;;;;;;20.90;13.07;;;7.70;99.90;;;;;;5048428;28;20048;-77
2021/01/07 10:02:10;;;;;;;18.23;13.32;;;7.70;99.90;;;;;;5047311;28;20091;-77
2021/01/07 10:04:41;;;;;;;41.40;24.02;;;7.70;99.90;;;;;;5049554;28;20025;-77
2021/01/07 10:07:07;;;;;;;65.63;33.58;;;7.70;99.90;;;;;;5046881;28;20440;-77
2021/01/07 10:09:33;;;;;;;98.50;48.03;;;7.80;99.90;;;;;;5048096;28;20432;-77
2021/01/07 10:11:59;;;;;;;108.60;55.15;;;7.70;99.90;;;;;;5049240;28;20032;-77
2021/01/07 10:14:26;;;;;;;30.75;15.60;;;7.80;99.90;;;;;;5048657;28;20095;-76
2021/01/07 10:16:56;;;;;;;19.27;9.35;;;7.80;99.90;;;;;;5048775;28;20057;-77
2021/01/07 10:19:24;;;;;;;19.48;9.20;;;7.80;99.90;;;;;;5047096;28;20029;-78
2021/01/07 10:22:22;;;;;;;19.23;10.77;;;7.80;99.90;;;;;;5046572;28;20029;-78
2021/01/07 10:24:48;;;;;;;20.55;10.73;;;8.30;99.90;;;;;;5025594;28;20326;-77
2021/01/07 10:27:16;;;;;;;12.48;8.38;;;9.40;99.90;;;;;;5047533;28;20028;-78
2021/01/07 10:29:44;;;;;;;19.02;8.77;;;10.50;99.90;;;;;;5050327;28;20029;-77
2021/01/07 10:32:12;;;;;;;23.73;9.95;;;11.60;99.90;;;;;;5049346;28;20053;-79
2021/01/07 10:34:40;;;;;;;12.88;8.30;;;12.40;99.90;;;;;;5049729;28;20021;-78
2021/01/07 10:37:07;;;;;;;18.58;12.10;;;12.80;99.90;;;;;;5026836;28;20033;-78
2021/01/07 10:39:34;;;;;;;17.20;9.98;;;12.60;99.90;;;;;;5049340;28;20029;-77
2021/01/07 10:42:06;;;;;;;19.75;12.88;;;12.10;99.90;;;;;;5030013;28;20042;-77
2021/01/07 10:44:38;;;;;;;16.42;10.63;;;11.80;99.90;;;;;;5048405;28;20049;-77
2021/01/07 10:47:06;;;;;;;16.63;9.95;;;11.70;99.90;;;;;;5050269;28;20134;-77
2021/01/07 10:49:33;;;;;;;13.00;6.78;;;11.50;99.90;;;;;;5044937;28;20039;-78
2021/01/07 10:52:07;;;;;;;15.73;6.47;;;11.30;99.90;;;;;;5039913;28;20021;-77
2021/01/07 10:54:52;;;;;;;13.30;6.15;;;11.30;99.90;;;;;;5031429;28;20021;-76
2021/01/07 10:57:42;;;;;;;11.52;6.32;;;11.30;99.90;;;;;;5031262;28;20037;-79
2021/01/07 11:00:30;;;;;;;14.90;6.10;;;11.20;99.90;;;;;;5037149;28;20036;-77
2021/01/07 11:03:01;;;;;;;9.55;5.55;;;11.10;99.90;;;;;;5013363;28;20692;-77
2021/01/07 11:05:31;;;;;;;10.07;5.30;;;11.20;99.90;;;;;;5048978;28;20021;-76
2021/01/07 11:08:18;;;;;;;13.75;6.78;;;11.40;99.90;;;;;;5047708;28;20045;-76
2021/01/07 11:10:50;;;;;;;8.82;5.70;;;11.30;99.90;;;;;;5025457;28;20025;-76
2021/01/07 11:13:20;;;;;;;14.90;8.68;;;11.00;99.90;;;;;;5046311;28;20025;-76
2021/01/07 11:15:52;;;;;;;12.52;6.53;;;10.80;99.90;;;;;;5053268;28;20726;-76
2021/01/07 11:18:31;;;;;;;34.65;23.45;;;10.60;99.90;;;;;;5051162;28;20476;-79
2021/01/07 11:21:03;;;;;;;19.38;11.82;;;10.40;99.90;;;;;;5053029;28;20029;-78
2021/01/07 11:23:29;;;;;;;13.50;8.90;;;10.40;99.90;;;;;;5051646;28;20029;-75
2021/01/07 11:25:55;;;;;;;12.70;7.57;;;10.60;99.90;;;;;;5051798;28;20063;-77
2021/01/07 11:28:21;;;;;;;10.75;7.15;;;10.90;99.90;;;;;;5049705;28;20029;-75
2021/01/07 11:30:48;;;;;;;18.20;8.13;;;11.10;99.90;;;;;;5050743;28;20144;-75
2021/01/07 11:33:17;;;;;;;12.68;7.80;;;11.10;99.90;;;;;;5052126;28;20026;-75
2021/01/07 11:35:47;;;;;;;12.48;8.05;;;11.10;99.90;;;;;;5049931;28;20053;-80
2021/01/07 11:38:24;;;;;;;52.45;32.78;;;10.90;99.90;;;;;;5051052;28;20044;-76
2021/01/07 11:41:02;;;;;;;25.70;15.55;;;10.90;99.90;;;;;;5042545;28;20021;-75
2021/01/07 11:43:46;;;;;;;16.15;8.30;;;10.80;99.90;;;;;;5044119;28;20033;-76
2021/01/07 11:46:22;;;;;;;13.65;8.10;;;10.70;99.90;;;;;;5030848;28;20025;-76
2021/01/07 11:48:56;;;;;;;14.00;9.48;;;10.60;99.90;;;;;;5034517;28;20390;-77
2021/01/07 11:51:22;;;;;;;23.98;13.52;;;10.40;99.90;;;;;;5026288;28;20493;-76
2021/01/07 11:53:49;;;;;;;21.83;12.23;;;10.40;99.90;;;;;;5017725;28;20036;-75
2021/01/07 11:56:16;;;;;;;12.50;8.60;;;10.30;99.90;;;;;;5042456;28;20018;-77
2021/01/07 11:58:44;;;;;;;16.35;8.35;;;10.20;99.90;;;;;;5050658;28;20539;-77
2021/01/07 12:01:10;;;;;;;13.20;7.72;;;10.10;99.90;;;;;;5053324;28;20079;-78
2021/01/07 12:03:36;;;;;;;14.00;8.07;;;10.00;99.90;;;;;;5051087;28;20033;-77
2021/01/07 12:06:08;;;;;;;10.90;7.43;;;10.00;99.90;;;;;;5046201;28;20371;-76
2021/01/07 12:08:44;;;;;;;19.85;10.18;;;10.10;99.90;;;;;;5042025;28;20021;-74
2021/01/07 12:11:16;;;;;;;14.48;9.07;;;10.00;99.90;;;;;;5048261;28;20101;-74
2021/01/07 12:14:12;;;;;;;19.05;11.20;;;9.80;99.90;;;;;;5047949;28;20033;-74
2021/01/07 12:17:05;;;;;;;22.38;11.02;;;9.70;99.90;;;;;;5024106;28;20021;-73
2021/01/07 12:19:32;;;;;;;18.25;10.70;;;9.60;99.90;;;;;;5042940;28;20057;-74
2021/01/07 12:22:00;;;;;;;18.13;9.73;;;9.60;99.90;;;;;;5051574;28;20021;-74
2021/01/07 12:24:29;;;;;;;13.48;8.73;;;9.60;99.90;;;;;;5030978;28;20024;-74
2021/01/07 12:26:55;;;;;;;16.23;9.13;;;9.60;99.90;;;;;;5048602;28;20032;-75
2021/01/07 12:29:22;;;;;;;15.98;9.00;;;9.50;99.90;;;;;;5049225;28;20096;-74
2021/01/07 12:31:53;;;;;;;23.55;10.38;;;9.40;99.90;;;;;;5050378;28;20025;-74
2021/01/07 12:34:36;;;;;;;20.60;11.27;;;9.40;99.90;;;;;;5052588;28;20385;-74
2021/01/07 12:37:17;;;;;;;16.55;9.90;;;9.30;99.90;;;;;;5049060;28;20017;-74
2021/01/07 12:39:55;;;;;;;13.88;9.15;;;9.30;99.90;;;;;;5030313;28;20067;-74
2021/01/07 12:42:31;;;;;;;19.38;13.48;;;9.30;99.90;;;;;;5048411;28;20385;-73
2021/01/07 12:45:01;;;;;;;23.23;11.85;;;9.30;99.90;;;;;;5051179;28;20017;-75
2021/01/07 12:47:27;;;;;;;20.98;10.50;;;9.30;99.90;;;;;;5048848;28;20099;-75
2021/01/07 12:49:57;;;;;;;14.77;9.95;;;9.20;99.90;;;;;;5048101;28;20060;-77
2021/01/07 12:52:26;;;;;;;20.70;10.65;;;9.10;99.90;;;;;;5050167;28;20098;-74
2021/01/07 12:54:54;;;;;;;24.23;10.25;;;9.00;99.90;;;;;;5051633;28;20060;-76